EW6701 Weather Reports


Display with metric or nautical units.
time (UTC)temp
F
wind
direction
speed
MPH
gust
MPH
rain 1hr
in
rain 24hr
in
rain mn
in
humidity
%
barometer
mb
20190217134508 31 339 0.0 0.0 0.01 0.06 0.01 97 1015.9
20190217133008 31 346 0.0 0.0 0.01 0.06 0.01 97 1015.8
20190217131502 31 166 0.0 0.0 0.01 0.06 0.01 97 1015.7
20190217130231 31 166 0.0 0.0 0.00 0.05 0.00 97 1015.4
20190217124732 32 166 0.0 0.0 0.00 0.05 0.00 97 1015.2
20190217123340 32 157 0.0 0.0 0.00 0.05 0.00 97 1015.0
20190217121736 32 191 0.0 0.0 0.00 0.05 0.00 97 1014.9
20190217120200 32 186 0.0 0.0 0.00 0.05 0.00 97 1014.8
20190217114830 32 187 0.0 0.0 0.00 0.05 0.00 97 1014.9
20190217113121 32 187 0.0 0.0 0.00 0.05 0.00 97 1014.8
20190217111653 32 185 0.0 0.0 0.00 0.05 0.00 96 1014.8
20190217110206 32 140 0.0 0.0 0.00 0.05 0.00 96 1014.7
20190217104608 32 198 0.0 5.0 0.00 0.06 0.00 97 1014.7
20190217103133 32 190 0.0 5.0 0.00 0.06 0.00 97 1014.6
20190217101641 32 149 0.0 3.0 0.00 0.06 0.00 96 1014.6
20190217100111 32 172 1.0 5.0 0.00 0.06 0.00 96 1014.4
20190217094608 33 171 0.0 0.0 0.00 0.06 0.00 97 1014.4
20190217093136 33 161 0.0 0.0 0.00 0.06 0.00 96 1014.4
20190217091624 33 161 0.0 0.0 0.00 0.06 0.00 96 1014.4
20190217090109 33 170 0.0 0.0 0.00 0.06 0.00 96 1014.4
20190217084549 33 192 0.0 0.0 0.00 0.06 0.00 96 1014.2
20190217083114 33 170 0.0 0.0 0.00 0.06 0.00 96 1014.1
20190217081626 33 170 0.0 0.0 0.01 0.06 0.00 96 1014.0
20190217080047 33 169 0.0 0.0 0.01 0.06 0.00 96 1013.9
20190217074618 33 220 0.0 0.0 0.01 0.07 0.06 96 1013.9
20190217073038 33 220 0.0 0.0 0.01 0.07 0.06 96 1013.8
20190217071533 33 175 0.0 0.0 0.00 0.06 0.05 96 1013.7
20190217070034 33 196 0.0 2.0 0.00 0.06 0.05 96 1013.8
20190217064544 33 202 0.0 0.0 0.00 0.06 0.05 96 1013.7
20190217063041 33 203 0.0 0.0 0.00 0.06 0.05 96 1013.6
20190217061541 33 188 0.0 0.0 0.00 0.06 0.05 96 1013.5
20190217060041 33 187 0.0 1.0 0.00 0.06 0.05 96 1013.3
20190217054532 34 297 0.0 0.0 0.00 0.06 0.05 96 1013.3
20190217053035 34 197 0.0 0.0 0.00 0.06 0.05 96 1013.2
20190217051524 34 161 0.0 0.0 0.00 0.06 0.05 96 1013.1
20190217050038 34 161 0.0 1.0 0.00 0.06 0.05 96 1012.9
20190217044539 34 199 0.0 1.0 0.00 0.06 0.05 96 1012.8
20190217043016 34 289 0.0 5.0 0.00 0.06 0.05 95 1012.9
20190217041543 34 228 0.0 1.0 0.00 0.06 0.05 95 1012.8
20190217040013 34 311 0.0 0.0 0.00 0.06 0.05 95 1012.8
20190217034513 34 307 0.0 0.0 0.01 0.07 0.05 95 1012.7
20190217033014 34 206 0.0 0.0 0.01 0.07 0.05 95 1012.8
20190217031536 35 206 0.0 0.0 0.01 0.07 0.05 95 1012.8
20190217030014 35 321 0.0 0.0 0.01 0.07 0.05 94 1012.8
20190217024545 35 318 0.0 2.0 0.00 0.06 0.04 94 1012.7
20190217023004 35 336 0.0 6.0 0.00 0.06 0.04 94 1012.6
20190217021514 36 355 0.0 6.0 0.00 0.06 0.04 94 1012.4
20190217020007 36 311 5.0 12.0 0.00 0.06 0.04 93 1012.6
20190217014503 37 310 4.0 11.0 0.00 0.07 0.04 93 1012.5
20190217013003 37 356 5.0 10.0 0.00 0.07 0.04 93 1012.4
20190217011658 38 345 2.0 7.0 0.00 0.07 0.04 93 1012.5
20190217010151 38 351 3.0 10.0 0.00 0.07 0.04 92 1012.5
20190217004646 38 321 2.0 11.0 0.00 0.07 0.04 90 1012.5
20190217003114 39 315 0.0 9.0 0.00 0.07 0.04 89 1012.5
20190217001643 41 299 0.0 8.0 0.00 0.07 0.04 87 1012.5
20190217000147 42 292 1.0 8.0 0.00 0.07 0.04 90 1012.3
20190216234621 40 324 6.0 10.0 0.01 0.08 0.04 93 1012.3
20190216233112 38 319 2.0 10.0 0.01 0.08 0.04 92 1012.3
20190216231717 38 328 9.0 18.0 0.01 0.08 0.04 92 1012.3
20190216230153 39 341 8.0 18.0 0.01 0.08 0.04 91 1012.1
20190216224629 41 328 0.0 0.0 0.00 0.07 0.03 93 1012.0
20190216223133 41 325 0.0 0.0 0.00 0.07 0.03 93 1012.0
20190216221642 40 277 0.0 11.0 0.00 0.07 0.03 92 1011.9
20190216220145 40 235 2.0 13.0 0.00 0.07 0.03 95 1011.8
20190216214623 40 343 7.0 13.0 0.00 0.07 0.03 96 1011.9
20190216213204 39 253 2.0 9.0 0.00 0.07 0.03 97 1011.9
20190216211635 39 331 4.0 7.0 0.00 0.07 0.03 97 1011.8
20190216210134 37 338 5.0 12.0 0.00 0.07 0.03 97 1011.7
20190216204605 37 343 5.0 13.0 0.00 0.08 0.03 97 1011.6
20190216203102 36 309 3.0 12.0 0.00 0.08 0.03 97 1011.6
20190216201534 36 336 4.0 12.0 0.00 0.08 0.03 97 1011.8
20190216200101 35 309 3.0 11.0 0.01 0.08 0.03 97 1011.8
20190216194527 35 304 4.0 13.0 0.01 0.08 0.03 97 1011.8
20190216193042 35 318 4.0 9.0 0.01 0.08 0.03 97 1011.5
20190216191540 35 310 5.0 8.0 0.01 0.08 0.03 97 1011.2
20190216190027 35 289 3.0 9.0 0.00 0.07 0.02 97 1011.1
20190216184542 35 345 2.0 8.0 0.00 0.08 0.02 97 1010.9
20190216183022 35 291 3.0 8.0 0.00 0.08 0.02 97 1010.9
20190216181523 36 282 1.0 11.0 0.00 0.08 0.02 97 1010.7
20190216180026 36 307 3.0 10.0 0.00 0.08 0.02 97 1010.6
20190216174519 36 299 3.0 10.0 0.00 0.08 0.02 97 1010.5
20190216173014 36 305 3.0 11.0 0.00 0.08 0.02 97 1010.5
20190216171514 36 292 3.0 12.0 0.00 0.08 0.02 97 1010.4
20190216170014 36 311 1.0 9.0 0.00 0.08 0.02 97 1010.2
20190216164501 35 307 0.0 5.0 0.00 0.09 0.02 97 1010.1
20190216163249 35 266 0.0 1.0 0.00 0.09 0.02 97 1009.8
20190216161701 35 305 1.0 7.0 0.00 0.09 0.02 97 1009.6
20190216160242 35 303 0.0 4.0 0.00 0.09 0.02 97 1009.4
20190216154703 35 292 0.0 6.0 0.00 0.09 0.02 97 1009.2
20190216153157 35 249 0.0 2.0 0.01 0.09 0.02 97 1008.9
20190216151642 35 307 0.0 6.0 0.01 0.09 0.02 97 1008.8
20190216150220 36 316 0.0 5.0 0.01 0.09 0.02 96 1008.6
20190216144640 36 359 0.0 4.0 0.01 0.10 0.02 97 1008.5
20190216143132 36 332 1.0 7.0 0.00 0.09 0.01 97 1008.2
20190216141618 36 316 0.0 7.0 0.00 0.09 0.01 97 1008.1
20190216140122 36 282 0.0 6.0 0.00 0.09 0.01 96 1007.9